Time;durP1;ratioP1;P1;durP2;ratioP2;P2;SDS_P1;SDS_P2;PMS_P1;PMS_P2;Temp;Humidity;BMP_temperature;BMP_pressure;BME280_temperature;BME280_humidity;BME280_pressure;Samples;Min_cycle;Max_cycle;Signal;HPM_P1;HPM_P2
2021/05/16 00:01:57;;;;;;;18.93;3.50;;;;;;;;;;5092637;28;20293;-74
2021/05/16 00:04:23;;;;;;;19.23;3.33;;;;;;;;;;5092743;28;20350;-75
2021/05/16 00:06:50;;;;;;;16.00;3.63;;;;;;;;;;5092538;28;20281;-74
2021/05/16 00:09:17;;;;;;;17.30;3.70;;;;;;;;;;5092407;28;20226;-74
2021/05/16 00:11:44;;;;;;;18.70;3.70;;;;;;;;;;5092819;28;20243;-74
2021/05/16 00:14:10;;;;;;;21.70;3.23;;;;;;;;;;5092254;28;20281;-75
2021/05/16 00:16:38;;;;;;;16.53;3.70;;;;;;;;;;5092426;28;20228;-74
2021/05/16 00:19:05;;;;;;;18.63;3.77;;;;;;;;;;5092247;28;20736;-75
2021/05/16 00:21:32;;;;;;;15.73;3.47;;;;;;;;;;5092904;28;20572;-74
2021/05/16 00:23:59;;;;;;;18.10;3.97;;;;;;;;;;5092646;28;20239;-75
2021/05/16 00:26:25;;;;;;;13.37;3.50;;;;;;;;;;5092203;28;20681;-75
2021/05/16 00:28:52;;;;;;;17.70;3.83;;;;;;;;;;5091962;28;20721;-74
2021/05/16 00:31:19;;;;;;;18.37;4.00;;;;;;;;;;5091507;28;20632;-75
2021/05/16 00:33:47;;;;;;;17.80;4.17;;;;;;;;;;5092414;28;20292;-74
2021/05/16 00:36:14;;;;;;;12.03;3.57;;;;;;;;;;5091277;28;20280;-75
2021/05/16 00:38:40;;;;;;;15.47;3.23;;;;;;;;;;5092183;28;20636;-72
2021/05/16 00:41:07;;;;;;;13.43;3.20;;;;;;;;;;5091759;28;20220;-74
2021/05/16 00:43:34;;;;;;;11.53;3.37;;;;;;;;;;5092128;28;20209;-74
2021/05/16 00:46:00;;;;;;;18.13;3.40;;;;;;;;;;5092101;28;20293;-74
2021/05/16 00:48:27;;;;;;;15.20;3.33;;;;;;;;;;5092266;28;20237;-74
2021/05/16 00:50:54;;;;;;;14.77;3.50;;;;;;;;;;5091597;28;20286;-74
2021/05/16 00:53:22;;;;;;;13.67;3.63;;;;;;;;;;5091630;28;20293;-74
2021/05/16 00:55:50;;;;;;;16.43;3.03;;;;;;;;;;5091239;28;20271;-74
2021/05/16 00:58:17;;;;;;;16.03;3.03;;;;;;;;;;5091418;28;20252;-74
2021/05/16 01:00:44;;;;;;;13.37;3.07;;;;;;;;;;5091578;28;20278;-75
2021/05/16 01:03:12;;;;;;;14.40;3.33;;;;;;;;;;5091809;28;20196;-74
2021/05/16 01:05:41;;;;;;;15.07;3.73;;;;;;;;;;5092031;28;20292;-74
2021/05/16 01:08:09;;;;;;;14.57;3.40;;;;;;;;;;5091377;28;20209;-74
2021/05/16 01:10:36;;;;;;;16.20;2.77;;;;;;;;;;5091189;28;20233;-74
2021/05/16 01:13:05;;;;;;;16.07;3.33;;;;;;;;;;5091714;28;20290;-74
2021/05/16 01:15:31;;;;;;;15.07;3.40;;;;;;;;;;5091631;28;20265;-74
2021/05/16 01:17:59;;;;;;;18.40;3.50;;;;;;;;;;5091412;28;20233;-74
2021/05/16 01:20:29;;;;;;;15.57;3.90;;;;;;;;;;5091566;28;20202;-74
2021/05/16 01:22:57;;;;;;;12.90;3.40;;;;;;;;;;5091468;28;20659;-74
2021/05/16 01:25:25;;;;;;;18.33;3.00;;;;;;;;;;5091105;28;20208;-74
2021/05/16 01:27:51;;;;;;;12.53;3.27;;;;;;;;;;5091768;28;20412;-74
2021/05/16 01:30:19;;;;;;;13.07;3.20;;;;;;;;;;5091344;28;20300;-74
2021/05/16 01:32:46;;;;;;;15.57;3.20;;;;;;;;;;5091232;28;20301;-74
2021/05/16 01:35:13;;;;;;;13.27;3.07;;;;;;;;;;5091730;28;20312;-74
2021/05/16 01:37:40;;;;;;;20.00;4.10;;;;;;;;;;5091026;28;20198;-74
2021/05/16 01:40:09;;;;;;;11.37;3.30;;;;;;;;;;5091107;28;20204;-74
2021/05/16 01:42:39;;;;;;;13.80;3.70;;;;;;;;;;5093223;28;20799;-74
2021/05/16 01:45:11;;;;;;;14.77;3.10;;;;;;;;;;5095561;28;20672;-74
2021/05/16 01:47:38;;;;;;;15.63;3.50;;;;;;;;;;5095232;28;20206;-74
2021/05/16 01:50:06;;;;;;;11.30;3.13;;;;;;;;;;5087744;28;20202;-74
2021/05/16 01:52:33;;;;;;;15.13;3.63;;;;;;;;;;5088411;28;20210;-74
2021/05/16 01:55:00;;;;;;;20.93;3.73;;;;;;;;;;5093923;28;20236;-74
2021/05/16 01:57:28;;;;;;;17.63;4.60;;;;;;;;;;5091865;28;20311;-74
2021/05/16 01:59:55;;;;;;;12.70;3.37;;;;;;;;;;5095646;28;20289;-74
2021/05/16 02:02:22;;;;;;;14.03;3.53;;;;;;;;;;5095435;28;20211;-74
2021/05/16 02:04:49;;;;;;;14.13;3.23;;;;;;;;;;5094911;28;20737;-74
2021/05/16 02:07:16;;;;;;;13.83;3.50;;;;;;;;;;5095326;28;20251;-74
2021/05/16 02:09:43;;;;;;;12.67;3.20;;;;;;;;;;5094315;28;20321;-74
2021/05/16 02:12:10;;;;;;;11.87;3.37;;;;;;;;;;5094229;28;20567;-74
2021/05/16 02:14:37;;;;;;;11.20;3.37;;;;;;;;;;5094740;28;20308;-75
2021/05/16 02:17:05;;;;;;;15.30;3.30;;;;;;;;;;5094331;28;20724;-74
2021/05/16 02:19:32;;;;;;;14.47;3.67;;;;;;;;;;5094793;28;20237;-74
2021/05/16 02:21:59;;;;;;;9.40;3.03;;;;;;;;;;5095089;28;20198;-73
2021/05/16 02:24:26;;;;;;;15.03;4.17;;;;;;;;;;5094489;28;20297;-73
2021/05/16 02:26:58;;;;;;;12.83;3.47;;;;;;;;;;5094469;28;20218;-73
2021/05/16 02:29:24;;;;;;;11.17;3.43;;;;;;;;;;5094390;28;20235;-73
2021/05/16 02:31:52;;;;;;;12.13;3.33;;;;;;;;;;5094381;28;20206;-73
2021/05/16 02:34:19;;;;;;;13.57;3.47;;;;;;;;;;5094146;28;20732;-73
2021/05/16 02:36:46;;;;;;;18.03;3.93;;;;;;;;;;5094252;28;20273;-73
2021/05/16 02:39:12;;;;;;;18.77;4.17;;;;;;;;;;5093687;28;20206;-73
2021/05/16 02:41:39;;;;;;;11.47;3.63;;;;;;;;;;5093713;28;20690;-73
2021/05/16 02:44:06;;;;;;;10.70;3.20;;;;;;;;;;5094189;28;20905;-73
2021/05/16 02:46:33;;;;;;;11.93;3.70;;;;;;;;;;5094675;28;20236;-73
2021/05/16 02:49:00;;;;;;;13.80;3.57;;;;;;;;;;5092434;28;20201;-74
2021/05/16 02:51:27;;;;;;;14.57;3.97;;;;;;;;;;5094238;28;20205;-73
2021/05/16 02:53:54;;;;;;;11.23;3.60;;;;;;;;;;5092524;28;20293;-73
2021/05/16 02:56:21;;;;;;;13.20;3.77;;;;;;;;;;5093745;28;20309;-73
2021/05/16 02:58:48;;;;;;;10.63;3.60;;;;;;;;;;5093722;28;20295;-74
2021/05/16 03:01:15;;;;;;;9.43;3.10;;;;;;;;;;5093786;28;20285;-73
2021/05/16 03:03:41;;;;;;;15.07;3.20;;;;;;;;;;5094259;28;20209;-73
2021/05/16 03:06:09;;;;;;;12.43;3.40;;;;;;;;;;5093812;28;20285;-74
2021/05/16 03:08:36;;;;;;;8.17;3.17;;;;;;;;;;5093615;28;20330;-73
2021/05/16 03:11:03;;;;;;;13.03;4.00;;;;;;;;;;5093391;28;20629;-73
2021/05/16 03:13:29;;;;;;;12.63;3.87;;;;;;;;;;5093534;28;20294;-73
2021/05/16 03:15:57;;;;;;;12.77;3.30;;;;;;;;;;5092997;28;20219;-73
2021/05/16 03:18:23;;;;;;;12.73;3.27;;;;;;;;;;5093827;28;20289;-73
2021/05/16 03:20:50;;;;;;;9.30;3.37;;;;;;;;;;5093799;28;20225;-73
2021/05/16 03:23:18;;;;;;;7.70;3.17;;;;;;;;;;5093271;28;20705;-73
2021/05/16 03:25:45;;;;;;;11.37;2.70;;;;;;;;;;5094027;28;20313;-73
2021/05/16 03:28:12;;;;;;;12.63;3.37;;;;;;;;;;5093296;28;20304;-74
2021/05/16 03:30:38;;;;;;;7.37;2.50;;;;;;;;;;5093781;28;20205;-75
2021/05/16 03:33:05;;;;;;;13.40;3.13;;;;;;;;;;5093199;28;20281;-73
2021/05/16 03:35:32;;;;;;;10.93;3.40;;;;;;;;;;5081951;28;20305;-75
2021/05/16 03:37:59;;;;;;;7.70;2.60;;;;;;;;;;5093233;28;20229;-75
2021/05/16 03:40:27;;;;;;;10.97;2.97;;;;;;;;;;5093120;28;20621;-72
2021/05/16 03:42:54;;;;;;;10.17;3.20;;;;;;;;;;5093513;28;20243;-75
2021/05/16 03:45:21;;;;;;;9.67;2.87;;;;;;;;;;5093140;28;20197;-75
2021/05/16 03:47:47;;;;;;;12.33;3.00;;;;;;;;;;5093315;28;20335;-75
2021/05/16 03:50:14;;;;;;;9.80;3.03;;;;;;;;;;5092272;28;20286;-75
2021/05/16 03:52:43;;;;;;;13.77;3.10;;;;;;;;;;5092204;28;20197;-75
2021/05/16 03:55:10;;;;;;;12.03;2.97;;;;;;;;;;5092228;28;20201;-74
2021/05/16 03:57:38;;;;;;;13.07;3.03;;;;;;;;;;5093003;28;20285;-74
2021/05/16 04:00:05;;;;;;;8.80;2.73;;;;;;;;;;5092964;28;20198;-74
2021/05/16 04:02:32;;;;;;;12.70;3.30;;;;;;;;;;5092931;28;20327;-74
2021/05/16 04:04:59;;;;;;;13.70;3.30;;;;;;;;;;5092611;28;20327;-74
2021/05/16 04:07:25;;;;;;;7.17;2.30;;;;;;;;;;5092645;28;20292;-74
2021/05/16 04:09:52;;;;;;;9.67;2.73;;;;;;;;;;5092610;28;20318;-74
2021/05/16 04:12:19;;;;;;;10.63;2.67;;;;;;;;;;5092630;28;20601;-75
2021/05/16 04:14:49;;;;;;;10.87;3.10;;;;;;;;;;5092560;28;20213;-74
2021/05/16 04:17:16;;;;;;;11.13;3.00;;;;;;;;;;5092257;28;20267;-74
2021/05/16 04:19:43;;;;;;;13.50;2.93;;;;;;;;;;5092054;28;20281;-74
2021/05/16 04:22:10;;;;;;;11.03;2.90;;;;;;;;;;5092477;28;20198;-74
2021/05/16 04:24:36;;;;;;;10.13;3.03;;;;;;;;;;5092719;28;20290;-74
2021/05/16 04:27:03;;;;;;;11.43;2.73;;;;;;;;;;5092778;28;20214;-74
2021/05/16 04:29:30;;;;;;;11.90;3.20;;;;;;;;;;5092246;28;20190;-75
2021/05/16 04:31:57;;;;;;;8.73;2.80;;;;;;;;;;5092116;28;20289;-74
2021/05/16 04:34:24;;;;;;;8.97;2.77;;;;;;;;;;5091673;28;20283;-75
2021/05/16 04:36:51;;;;;;;10.63;3.20;;;;;;;;;;5091804;28;20884;-74
2021/05/16 04:39:18;;;;;;;11.30;2.90;;;;;;;;;;5092162;28;20641;-74
2021/05/16 04:41:44;;;;;;;10.93;2.97;;;;;;;;;;5091861;28;20665;-74
2021/05/16 04:44:11;;;;;;;11.50;2.80;;;;;;;;;;5092603;28;20205;-74
2021/05/16 04:46:38;;;;;;;9.17;2.97;;;;;;;;;;5092294;28;20281;-75
2021/05/16 04:49:06;;;;;;;9.40;2.20;;;;;;;;;;5092055;28;20238;-74
2021/05/16 04:51:33;;;;;;;10.80;2.80;;;;;;;;;;5091661;28;20202;-74
2021/05/16 04:54:00;;;;;;;12.30;3.43;;;;;;;;;;5092407;28;20287;-74
2021/05/16 04:56:27;;;;;;;10.97;2.83;;;;;;;;;;5091860;28;20412;-75
2021/05/16 04:58:53;;;;;;;10.80;3.07;;;;;;;;;;5091804;28;20194;-74
2021/05/16 05:01:22;;;;;;;9.63;2.50;;;;;;;;;;5091612;28;20214;-74
2021/05/16 05:03:49;;;;;;;9.30;2.70;;;;;;;;;;5091501;28;20198;-75
2021/05/16 05:06:17;;;;;;;11.67;2.90;;;;;;;;;;5091319;28;20599;-74
2021/05/16 05:08:43;;;;;;;14.10;2.70;;;;;;;;;;5091353;28;20328;-75
2021/05/16 05:11:10;;;;;;;10.43;2.83;;;;;;;;;;5091919;28;20282;-74
2021/05/16 05:13:37;;;;;;;9.23;2.70;;;;;;;;;;5091818;28;20220;-75
2021/05/16 05:16:04;;;;;;;8.40;2.70;;;;;;;;;;5091693;28;20218;-74
2021/05/16 05:18:32;;;;;;;9.37;2.53;;;;;;;;;;5090510;28;20335;-74
2021/05/16 05:20:59;;;;;;;12.30;2.60;;;;;;;;;;5090913;28;20201;-74
2021/05/16 05:23:27;;;;;;;10.97;2.83;;;;;;;;;;5091252;28;20197;-74
2021/05/16 05:25:56;;;;;;;10.13;2.43;;;;;;;;;;5091333;28;20304;-74
2021/05/16 05:28:23;;;;;;;7.87;2.67;;;;;;;;;;5091730;28;20206;-74
2021/05/16 05:30:50;;;;;;;8.67;2.37;;;;;;;;;;5090850;28;20289;-74
2021/05/16 05:33:18;;;;;;;7.07;2.50;;;;;;;;;;5091305;28;20200;-75
2021/05/16 05:35:45;;;;;;;13.63;2.90;;;;;;;;;;5090777;28;20677;-74
2021/05/16 05:38:12;;;;;;;9.53;2.50;;;;;;;;;;5091688;28;20237;-75
2021/05/16 05:40:40;;;;;;;8.43;2.53;;;;;;;;;;5091205;28;20302;-74
2021/05/16 05:43:07;;;;;;;10.97;2.50;;;;;;;;;;5091090;28;20199;-74
2021/05/16 05:45:34;;;;;;;10.30;3.00;;;;;;;;;;5091567;28;20198;-74
2021/05/16 05:48:00;;;;;;;10.07;2.87;;;;;;;;;;5090356;28;20281;-74
2021/05/16 05:50:27;;;;;;;11.13;3.30;;;;;;;;;;5091696;28;20289;-74
2021/05/16 05:52:54;;;;;;;7.70;2.63;;;;;;;;;;5091057;28;20617;-74
2021/05/16 05:55:22;;;;;;;9.83;2.10;;;;;;;;;;5090467;28;20665;-74
2021/05/16 05:57:49;;;;;;;10.37;2.50;;;;;;;;;;5091127;28;20201;-75
2021/05/16 06:00:16;;;;;;;7.33;2.50;;;;;;;;;;5090908;28;20293;-74
2021/05/16 06:02:43;;;;;;;13.03;2.70;;;;;;;;;;5090790;28;20198;-74
2021/05/16 06:05:10;;;;;;;9.87;2.83;;;;;;;;;;5090594;28;20289;-75
2021/05/16 06:07:37;;;;;;;12.47;2.70;;;;;;;;;;5091576;28;20614;-74
2021/05/16 06:10:05;;;;;;;11.73;2.07;;;;;;;;;;5090712;28;20258;-75
2021/05/16 06:12:31;;;;;;;5.57;2.30;;;;;;;;;;5091465;28;20293;-75
2021/05/16 06:14:59;;;;;;;6.73;1.93;;;;;;;;;;5090555;28;20226;-74
2021/05/16 06:17:26;;;;;;;5.20;1.63;;;;;;;;;;5091144;28;20262;-75
2021/05/16 06:19:53;;;;;;;5.90;1.83;;;;;;;;;;5091271;28;20388;-75
2021/05/16 06:22:20;;;;;;;5.13;1.67;;;;;;;;;;5090998;28;20285;-75
2021/05/16 06:24:47;;;;;;;5.72;1.42;;;;;;;;;;5091270;28;20361;-75
2021/05/16 06:27:14;;;;;;;6.72;1.80;;;;;;;;;;5090773;28;20242;-74
2021/05/16 06:29:41;;;;;;;10.18;2.35;;;;;;;;;;5091936;28;20206;-74
2021/05/16 06:32:10;;;;;;;6.25;1.55;;;;;;;;;;5094624;28;20208;-74
2021/05/16 06:34:37;;;;;;;9.85;2.28;;;;;;;;;;5094348;28;20206;-74
2021/05/16 06:37:04;;;;;;;7.37;1.67;;;;;;;;;;5094470;28;20317;-74
2021/05/16 06:39:31;;;;;;;10.67;2.13;;;;;;;;;;5093883;28;20624;-73
2021/05/16 06:41:58;;;;;;;8.63;1.83;;;;;;;;;;5093956;28;20285;-73
2021/05/16 06:44:25;;;;;;;7.90;1.93;;;;;;;;;;5093686;28;20287;-73
2021/05/16 06:46:52;;;;;;;7.13;1.88;;;;;;;;;;5093820;28;20285;-73
2021/05/16 06:49:20;;;;;;;9.90;2.00;;;;;;;;;;5093937;28;20293;-73
2021/05/16 06:51:46;;;;;;;9.00;1.95;;;;;;;;;;5093950;28;20198;-73
2021/05/16 06:54:13;;;;;;;6.68;1.77;;;;;;;;;;5094252;28;20567;-74
2021/05/16 06:56:40;;;;;;;6.72;1.80;;;;;;;;;;5093182;28;20629;-73
2021/05/16 06:59:07;;;;;;;11.75;2.28;;;;;;;;;;5093864;28;20334;-74
2021/05/16 07:01:33;;;;;;;7.28;1.90;;;;;;;;;;5093279;28;20289;-75
2021/05/16 07:04:00;;;;;;;9.07;2.03;;;;;;;;;;5094044;28;20703;-74
2021/05/16 07:06:28;;;;;;;8.13;1.70;;;;;;;;;;5093562;28;20225;-74
2021/05/16 07:08:55;;;;;;;10.05;1.80;;;;;;;;;;5093270;28;20664;-74
2021/05/16 07:11:22;;;;;;;9.18;2.22;;;;;;;;;;5093242;28;20320;-74
2021/05/16 07:13:48;;;;;;;9.60;2.00;;;;;;;;;;5093664;28;20285;-74
2021/05/16 07:16:15;;;;;;;11.38;2.40;;;;;;;;;;5093823;28;20218;-74
2021/05/16 07:18:42;;;;;;;9.70;2.00;;;;;;;;;;5093132;28;20214;-74
2021/05/16 07:21:09;;;;;;;11.38;2.03;;;;;;;;;;5093439;28;20352;-74
2021/05/16 07:23:36;;;;;;;8.73;2.20;;;;;;;;;;5093396;28;20289;-74
2021/05/16 07:26:03;;;;;;;7.32;1.92;;;;;;;;;;5093739;28;20246;-74
2021/05/16 07:28:30;;;;;;;8.77;2.15;;;;;;;;;;5091871;28;20234;-74
2021/05/16 07:30:58;;;;;;;10.27;1.70;;;;;;;;;;5093013;28;21008;-74
2021/05/16 07:33:24;;;;;;;7.68;1.90;;;;;;;;;;5092534;28;20286;-75
2021/05/16 07:35:53;;;;;;;9.50;1.73;;;;;;;;;;5092528;28;20225;-74
2021/05/16 07:38:19;;;;;;;10.32;2.13;;;;;;;;;;5092851;28;20222;-74
2021/05/16 07:40:47;;;;;;;8.93;2.10;;;;;;;;;;5092563;28;20313;-74
2021/05/16 07:43:16;;;;;;;8.88;2.28;;;;;;;;;;5093412;28;20336;-74
2021/05/16 07:45:43;;;;;;;8.15;1.90;;;;;;;;;;5092501;28;20278;-74
2021/05/16 07:48:09;;;;;;;8.43;2.20;;;;;;;;;;5093468;28;20222;-74
2021/05/16 07:50:37;;;;;;;9.52;1.98;;;;;;;;;;5092885;28;20277;-74
2021/05/16 07:53:03;;;;;;;8.77;2.05;;;;;;;;;;5093260;28;20285;-74
2021/05/16 07:55:30;;;;;;;8.77;1.75;;;;;;;;;;5092307;28;20300;-74
2021/05/16 07:57:58;;;;;;;8.75;1.95;;;;;;;;;;5092715;28;20256;-74
2021/05/16 08:00:24;;;;;;;7.32;2.00;;;;;;;;;;5092410;28;20252;-74
2021/05/16 08:02:51;;;;;;;10.40;1.92;;;;;;;;;;5092740;28;20285;-78
2021/05/16 08:05:18;;;;;;;11.10;2.20;;;;;;;;;;5092976;28;20198;-78
2021/05/16 08:07:45;;;;;;;11.57;2.53;;;;;;;;;;5092195;28;20621;-78
2021/05/16 08:10:13;;;;;;;10.88;2.15;;;;;;;;;;5085673;28;20237;-76
2021/05/16 08:12:40;;;;;;;10.32;2.03;;;;;;;;;;5091106;28;20194;-75
2021/05/16 08:15:09;;;;;;;12.35;2.30;;;;;;;;;;5094530;28;20302;-77
2021/05/16 08:17:35;;;;;;;7.72;1.90;;;;;;;;;;5091703;28;20214;-77
2021/05/16 08:20:02;;;;;;;6.50;1.50;;;;;;;;;;5091506;28;20285;-77
2021/05/16 08:22:29;;;;;;;9.60;2.08;;;;;;;;;;5091131;28;20281;-77
2021/05/16 08:24:56;;;;;;;11.57;1.80;;;;;;;;;;5087991;28;20281;-78
2021/05/16 08:27:22;;;;;;;11.18;2.30;;;;;;;;;;5090067;28;20225;-77
2021/05/16 08:29:49;;;;;;;10.48;2.10;;;;;;;;;;5086367;28;20194;-77
2021/05/16 08:32:17;;;;;;;10.75;2.05;;;;;;;;;;5090895;28;20237;-77
2021/05/16 08:34:43;;;;;;;9.57;2.20;;;;;;;;;;5091296;28;20233;-77
2021/05/16 08:37:11;;;;;;;8.82;1.73;;;;;;;;;;5091117;28;20258;-77
2021/05/16 08:39:38;;;;;;;8.15;2.05;;;;;;;;;;5091188;28;20237;-77
2021/05/16 08:42:05;;;;;;;12.40;2.42;;;;;;;;;;5090896;28;20204;-77
2021/05/16 08:44:32;;;;;;;8.82;1.88;;;;;;;;;;5090594;28;20278;-77
2021/05/16 08:46:59;;;;;;;11.40;2.25;;;;;;;;;;5089435;28;20369;-77
2021/05/16 08:49:27;;;;;;;9.93;2.13;;;;;;;;;;5089658;28;20206;-77
2021/05/16 08:51:54;;;;;;;8.88;2.10;;;;;;;;;;5089218;28;20248;-77
2021/05/16 08:54:21;;;;;;;9.85;2.20;;;;;;;;;;5089991;28;20206;-77
2021/05/16 08:56:48;;;;;;;10.20;2.17;;;;;;;;;;5089785;28;20225;-75
2021/05/16 08:59:15;;;;;;;7.97;1.77;;;;;;;;;;5089753;28;20281;-77
2021/05/16 09:01:46;;;;;;;7.13;1.55;;;;;;;;;;5089170;28;20225;-76
2021/05/16 09:04:19;;;;;;;6.20;1.70;;;;;;;;;;5089798;28;20331;-76
2021/05/16 09:06:50;;;;;;;6.15;1.50;;;;;;;;;;5088055;28;20654;-75
2021/05/16 09:09:27;;;;;;;6.95;1.77;;;;;;;;;;5086090;28;20261;-75
2021/05/16 09:11:54;;;;;;;4.95;1.25;;;;;;;;;;5093708;28;20685;-75
2021/05/16 09:14:37;;;;;;;3.92;1.38;;;;;;;;;;5096844;28;20310;-75
2021/05/16 09:17:19;;;;;;;6.07;1.67;;;;;;;;;;5096658;28;20300;-75
2021/05/16 09:19:46;;;;;;;6.47;1.60;;;;;;;;;;5093233;28;20298;-75
2021/05/16 09:22:29;;;;;;;5.85;1.63;;;;;;;;;;5098610;28;20205;-75
2021/05/16 09:25:05;;;;;;;4.47;1.42;;;;;;;;;;5095729;28;20284;-75
2021/05/16 09:27:34;;;;;;;6.82;1.45;;;;;;;;;;5099999;28;20641;-75
2021/05/16 09:30:01;;;;;;;7.68;1.63;;;;;;;;;;5101434;28;20194;-75
2021/05/16 09:32:27;;;;;;;5.55;1.23;;;;;;;;;;5097782;28;20194;-74
2021/05/16 09:34:54;;;;;;;9.40;2.00;;;;;;;;;;5092588;28;20289;-73
2021/05/16 09:37:22;;;;;;;4.78;1.30;;;;;;;;;;5089519;28;20348;-76
2021/05/16 09:39:48;;;;;;;5.70;1.50;;;;;;;;;;5079841;28;20291;-74
2021/05/16 09:42:17;;;;;;;6.75;1.65;;;;;;;;;;5085109;28;20285;-75
2021/05/16 09:44:45;;;;;;;6.28;1.63;;;;;;;;;;5090347;28;20202;-76
2021/05/16 09:47:14;;;;;;;5.28;1.80;;;;;;;;;;5091506;28;20200;-75
2021/05/16 09:49:42;;;;;;;6.90;1.88;;;;;;;;;;5091275;28;20644;-76
2021/05/16 09:52:10;;;;;;;5.60;1.42;;;;;;;;;;5090742;28;20575;-76
2021/05/16 09:54:52;;;;;;;8.02;2.58;;;;;;;;;;5090723;28;20306;-76
2021/05/16 09:57:19;;;;;;;10.55;3.20;;;;;;;;;;5089050;28;20325;-75
2021/05/16 09:59:46;;;;;;;6.05;1.90;;;;;;;;;;5091231;28;20205;-75
2021/05/16 10:02:13;;;;;;;7.97;1.75;;;;;;;;;;5091542;28;20281;-74
2021/05/16 10:04:40;;;;;;;7.93;1.90;;;;;;;;;;5094148;28;20202;-76
2021/05/16 10:07:07;;;;;;;5.90;1.30;;;;;;;;;;5095029;28;20285;-76
2021/05/16 10:09:34;;;;;;;6.60;1.30;;;;;;;;;;5094739;28;20329;-76
2021/05/16 10:12:03;;;;;;;6.77;1.23;;;;;;;;;;5095070;28;20234;-75
2021/05/16 10:14:31;;;;;;;3.37;1.10;;;;;;;;;;5094769;28;20783;-75
2021/05/16 10:16:59;;;;;;;5.13;1.03;;;;;;;;;;5094555;28;20313;-75
2021/05/16 10:19:31;;;;;;;5.27;1.63;;;;;;;;;;5095405;28;20293;-75
2021/05/16 10:22:04;;;;;;;7.38;1.25;;;;;;;;;;5094714;28;20230;-75
2021/05/16 10:24:37;;;;;;;6.85;1.50;;;;;;;;;;5094585;28;20297;-75
2021/05/16 10:27:17;;;;;;;7.05;1.60;;;;;;;;;;5094485;28;20318;-76
2021/05/16 10:29:49;;;;;;;4.80;1.35;;;;;;;;;;5094457;28;20289;-75
2021/05/16 10:32:23;;;;;;;10.32;2.47;;;;;;;;;;5094783;28;20281;-75
2021/05/16 10:34:56;;;;;;;8.57;1.83;;;;;;;;;;5094615;28;20205;-76
2021/05/16 10:37:37;;;;;;;7.07;1.97;;;;;;;;;;5094138;28;20360;-76
2021/05/16 10:40:05;;;;;;;5.87;1.50;;;;;;;;;;5093063;28;20619;-75
2021/05/16 10:42:34;;;;;;;8.85;1.75;;;;;;;;;;5094348;28;20199;-76
2021/05/16 10:45:13;;;;;;;6.50;1.42;;;;;;;;;;5094420;28;20202;-75
2021/05/16 10:48:01;;;;;;;7.90;1.60;;;;;;;;;;5094762;28;20202;-76
2021/05/16 10:50:35;;;;;;;6.28;1.70;;;;;;;;;;5094495;28;20355;-75
2021/05/16 10:53:02;;;;;;;6.65;1.58;;;;;;;;;;5094112;28;20293;-75
2021/05/16 10:55:29;;;;;;;6.00;1.60;;;;;;;;;;5094483;28;20230;-76
2021/05/16 10:57:56;;;;;;;7.03;1.70;;;;;;;;;;5093923;28;20685;-75
2021/05/16 11:00:25;;;;;;;3.92;1.38;;;;;;;;;;5094117;28;20252;-75
2021/05/16 11:02:59;;;;;;;6.03;1.30;;;;;;;;;;5094312;28;20209;-76
2021/05/16 11:05:46;;;;;;;15.50;7.63;;;;;;;;;;5093369;28;20194;-75
2021/05/16 11:08:33;;;;;;;12.45;5.38;;;;;;;;;;5093900;28;20198;-75
2021/05/16 11:11:03;;;;;;;6.45;2.13;;;;;;;;;;5093732;28;20297;-75
2021/05/16 11:13:32;;;;;;;7.85;2.70;;;;;;;;;;5093782;28;20692;-76
2021/05/16 11:16:03;;;;;;;6.80;2.22;;;;;;;;;;5091445;28;20312;-76
2021/05/16 11:18:30;;;;;;;7.05;1.95;;;;;;;;;;5094191;28;20213;-76
2021/05/16 11:20:57;;;;;;;8.48;2.42;;;;;;;;;;5092912;28;20293;-75
2021/05/16 11:23:25;;;;;;;9.30;2.30;;;;;;;;;;5093780;28;20226;-76
2021/05/16 11:25:55;;;;;;;10.93;2.60;;;;;;;;;;5093761;28;20304;-74
2021/05/16 11:28:23;;;;;;;6.93;1.80;;;;;;;;;;5093483;28;20281;-75
2021/05/16 11:30:50;;;;;;;6.72;1.60;;;;;;;;;;5094124;28;20301;-76
2021/05/16 11:33:27;;;;;;;7.13;1.98;;;;;;;;;;5093645;28;20289;-75
2021/05/16 11:35:54;;;;;;;5.82;1.80;;;;;;;;;;5093122;28;20233;-75
2021/05/16 11:38:26;;;;;;;6.15;1.67;;;;;;;;;;5093311;28;20289;-75
2021/05/16 11:40:54;;;;;;;8.02;1.60;;;;;;;;;;5093204;28;20296;-75
2021/05/16 11:43:27;;;;;;;7.68;1.83;;;;;;;;;;5092085;28;20669;-76
2021/05/16 11:45:53;;;;;;;8.05;1.80;;;;;;;;;;5091873;28;20685;-75
2021/05/16 11:48:29;;;;;;;5.15;1.70;;;;;;;;;;5093106;28;20296;-75
2021/05/16 11:51:06;;;;;;;9.55;1.83;;;;;;;;;;5092709;28;20201;-76
2021/05/16 11:53:33;;;;;;;4.65;1.33;;;;;;;;;;5093298;28;20214;-75
2021/05/16 11:56:02;;;;;;;9.18;1.70;;;;;;;;;;5093403;28;20237;-75
2021/05/16 11:58:30;;;;;;;6.03;1.73;;;;;;;;;;5092743;28;20562;-75
2021/05/16 12:00:57;;;;;;;6.32;1.77;;;;;;;;;;5093560;28;20606;-75
2021/05/16 12:03:24;;;;;;;5.93;1.92;;;;;;;;;;5092529;28;20904;-75
2021/05/16 12:05:50;;;;;;;7.03;1.70;;;;;;;;;;5092774;28;20285;-75
2021/05/16 12:08:19;;;;;;;5.68;1.58;;;;;;;;;;5092622;28;20289;-75
2021/05/16 12:10:47;;;;;;;7.25;1.48;;;;;;;;;;5093135;28;20657;-75
2021/05/16 12:13:23;;;;;;;6.25;1.75;;;;;;;;;;5092935;28;20234;-75
2021/05/16 12:15:50;;;;;;;6.95;1.95;;;;;;;;;;5092852;28;20206;-75
2021/05/16 12:18:24;;;;;;;6.20;1.65;;;;;;;;;;5092511;28;20290;-75
2021/05/16 12:21:00;;;;;;;7.85;1.70;;;;;;;;;;5092169;28;20285;-75
2021/05/16 12:23:28;;;;;;;7.20;1.52;;;;;;;;;;5092554;28;20198;-75
2021/05/16 12:25:55;;;;;;;6.78;1.85;;;;;;;;;;5091868;28;20301;-75
2021/05/16 12:28:22;;;;;;;9.68;2.10;;;;;;;;;;5091721;28;20202;-75
2021/05/16 12:30:50;;;;;;;7.30;1.70;;;;;;;;;;5092529;28;20761;-75
2021/05/16 12:33:17;;;;;;;8.57;1.70;;;;;;;;;;5092084;28;20687;-75
2021/05/16 12:35:45;;;;;;;6.97;1.57;;;;;;;;;;5092615;28;20204;-75
2021/05/16 12:38:12;;;;;;;6.03;1.70;;;;;;;;;;5091995;28;20198;-75
2021/05/16 12:40:40;;;;;;;4.63;1.67;;;;;;;;;;5092312;28;20202;-75
2021/05/16 12:43:08;;;;;;;4.50;1.23;;;;;;;;;;5092467;28;20202;-74
2021/05/16 12:45:36;;;;;;;5.63;1.88;;;;;;;;;;5092253;28;20197;-75
2021/05/16 12:48:04;;;;;;;5.10;1.58;;;;;;;;;;5091951;28;20190;-75
2021/05/16 12:50:33;;;;;;;6.25;1.45;;;;;;;;;;5091997;28;20195;-75
2021/05/16 12:53:20;;;;;;;6.88;1.30;;;;;;;;;;5092253;28;20297;-75
2021/05/16 12:55:48;;;;;;;6.22;1.40;;;;;;;;;;5092102;28;20209;-75
2021/05/16 12:58:16;;;;;;;5.18;1.23;;;;;;;;;;5091993;28;20205;-75
2021/05/16 13:00:51;;;;;;;5.47;1.48;;;;;;;;;;5091960;28;20194;-75
2021/05/16 13:03:26;;;;;;;5.57;1.30;;;;;;;;;;5091457;28;20225;-75
2021/05/16 13:05:53;;;;;;;3.72;1.00;;;;;;;;;;5092165;28;20209;-75
2021/05/16 13:08:32;;;;;;;4.57;1.35;;;;;;;;;;5091822;28;20285;-75
2021/05/16 13:11:00;;;;;;;4.28;1.20;;;;;;;;;;5092209;28;20300;-75
2021/05/16 13:13:33;;;;;;;3.75;1.13;;;;;;;;;;5091491;28;20194;-75
2021/05/16 13:16:02;;;;;;;5.45;1.40;;;;;;;;;;5091665;28;20293;-75
2021/05/16 13:18:31;;;;;;;4.25;1.05;;;;;;;;;;5091145;28;20205;-75
2021/05/16 13:20:59;;;;;;;3.83;0.98;;;;;;;;;;5091727;28;20616;-75
2021/05/16 13:23:27;;;;;;;4.22;1.15;;;;;;;;;;5092008;28;20287;-75
2021/05/16 13:25:55;;;;;;;4.80;1.15;;;;;;;;;;5091191;28;20272;-75
2021/05/16 13:28:27;;;;;;;6.38;1.67;;;;;;;;;;5091866;28;20202;-75
2021/05/16 13:30:55;;;;;;;5.18;1.40;;;;;;;;;;5091296;28;20658;-75
2021/05/16 13:33:22;;;;;;;5.20;1.20;;;;;;;;;;5091719;28;20194;-75
2021/05/16 13:35:49;;;;;;;6.18;1.35;;;;;;;;;;5091173;28;20301;-75
2021/05/16 13:38:15;;;;;;;5.25;1.48;;;;;;;;;;5092887;28;20309;-75
2021/05/16 13:40:42;;;;;;;5.97;1.33;;;;;;;;;;5113810;28;20211;-75
2021/05/16 13:43:09;;;;;;;6.80;1.77;;;;;;;;;;5116434;28;20740;-75
2021/05/16 13:45:37;;;;;;;6.90;1.45;;;;;;;;;;5115742;28;20236;-75
2021/05/16 13:48:04;;;;;;;5.22;1.52;;;;;;;;;;5116143;28;20193;-76
2021/05/16 13:50:31;;;;;;;9.20;1.90;;;;;;;;;;5116226;28;20285;-75
2021/05/16 13:52:58;;;;;;;5.82;1.70;;;;;;;;;;5116177;28;20253;-75
2021/05/16 13:55:25;;;;;;;5.57;1.63;;;;;;;;;;5111450;27;20691;-74
2021/05/16 13:57:52;;;;;;;5.20;1.40;;;;;;;;;;5095589;28;20775;-75
2021/05/16 14:00:18;;;;;;;6.75;1.58;;;;;;;;;;5095080;28;20286;-75
2021/05/16 14:02:46;;;;;;;7.60;1.70;;;;;;;;;;5095236;28;20626;-74
2021/05/16 14:05:13;;;;;;;6.07;1.20;;;;;;;;;;5093817;28;20246;-75
2021/05/16 14:07:40;;;;;;;5.45;1.15;;;;;;;;;;5094916;28;20191;-74
2021/05/16 14:10:07;;;;;;;4.93;1.52;;;;;;;;;;5094096;28;20309;-74
2021/05/16 14:12:34;;;;;;;7.15;1.85;;;;;;;;;;5091024;28;20285;-74
2021/05/16 14:15:00;;;;;;;9.52;1.60;;;;;;;;;;5096651;28;20247;-75
2021/05/16 14:17:27;;;;;;;7.78;1.50;;;;;;;;;;5093379;28;20335;-75
2021/05/16 14:19:57;;;;;;;10.25;2.00;;;;;;;;;;5087188;28;20199;-74
2021/05/16 14:22:24;;;;;;;7.70;1.75;;;17.90;99.90;;;;;;5080693;28;20324;-74
2021/05/16 14:24:50;;;;;;;6.97;1.67;;;17.40;99.90;;;;;;5093365;28;20202;-74
2021/05/16 14:27:17;;;;;;;7.72;1.77;;;17.50;99.90;;;;;;5096106;28;20705;-74
2021/05/16 14:29:44;;;;;;;5.63;1.42;;;18.50;99.90;;;;;;5102790;28;20647;-75
2021/05/16 14:32:15;;;;;;;5.72;1.50;;;19.60;99.90;;;;;;5094861;28;20230;-75
2021/05/16 14:34:42;;;;;;;9.73;1.60;;;18.70;99.90;;;;;;5093343;28;20205;-75
2021/05/16 14:37:12;;;;;;;8.82;1.77;;;18.20;99.90;;;;;;5083194;28;20706;-75
2021/05/16 14:39:39;;;;;;;9.03;1.47;;;17.30;99.90;;;;;;5093984;28;20236;-75